Time;durP1;ratioP1;P1;durP2;ratioP2;P2;SDS_P1;SDS_P2;PMS_P1;PMS_P2;Temp;Humidity;BMP_temperature;BMP_pressure;BME280_temperature;BME280_humidity;BME280_pressure;Samples;Min_cycle;Max_cycle;Signal;HPM_P1;HPM_P2
2023/06/24 00:01:31;;;;;;;14.70;7.25;;;;;;;;;;5009043;28;20045;-58
2023/06/24 00:03:57;;;;;;;14.18;7.78;;;;;;;;;;5013171;28;20420;-58
2023/06/24 00:06:25;;;;;;;15.05;7.13;;;;;;;;;;5007582;28;20026;-58
2023/06/24 00:08:56;;;;;;;13.85;6.90;;;;;;;;;;5008408;28;20041;-58
2023/06/24 00:11:22;;;;;;;13.43;6.80;;;;;;;;;;5013788;28;20041;-58
2023/06/24 00:13:49;;;;;;;14.65;7.05;;;;;;;;;;5008863;28;20045;-58
2023/06/24 00:16:15;;;;;;;13.40;6.60;;;;;;;;;;5016977;28;20399;-58
2023/06/24 00:18:41;;;;;;;13.07;6.80;;;;;;;;;;5015399;28;20034;-58
2023/06/24 00:21:07;;;;;;;12.18;6.43;;;;;;;;;;5012014;28;20057;-58
2023/06/24 00:23:34;;;;;;;12.57;7.30;;;;;;;;;;5011405;28;20033;-58
2023/06/24 00:26:00;;;;;;;13.10;6.95;;;;;;;;;;5009586;28;20040;-58
2023/06/24 00:28:27;;;;;;;10.77;6.18;;;;;;;;;;5010193;28;20034;-58
2023/06/24 00:30:54;;;;;;;12.50;6.72;;;;;;;;;;5013777;28;20398;-58
2023/06/24 00:33:20;;;;;;;10.68;6.63;;;;;;;;;;5012071;28;20033;-58
2023/06/24 00:35:47;;;;;;;10.63;6.75;;;;;;;;;;5009687;28;20034;-58
2023/06/24 00:38:14;;;;;;;14.02;7.22;;;;;;;;;;5009787;28;20054;-58
2023/06/24 00:40:42;;;;;;;14.73;7.65;;;;;;;;;;5009919;28;20046;-58
2023/06/24 00:43:09;;;;;;;14.00;7.20;;;;;;;;;;5011054;28;20049;-58
2023/06/24 00:45:35;;;;;;;13.40;6.43;;;;;;;;;;5011003;28;20042;-58
2023/06/24 00:48:03;;;;;;;14.90;6.90;;;;;;;;;;5015722;28;20061;-58
2023/06/24 00:50:29;;;;;;;11.60;7.13;;;;;;;;;;5012341;28;20046;-58
2023/06/24 00:52:55;;;;;;;12.50;7.10;;;;;;;;;;5008657;28;20101;-58
2023/06/24 00:55:22;;;;;;;20.20;8.00;;;;;;;;;;5025917;28;20034;-58
2023/06/24 00:57:53;;;;;;;16.13;7.63;;;;;;;;;;5016970;28;20506;-59
2023/06/24 01:00:21;;;;;;;15.68;7.80;;;;;;;;;;5008631;28;20124;-58
2023/06/24 01:02:49;;;;;;;16.13;7.78;;;;;;;;;;5013805;28;20403;-58
2023/06/24 01:05:15;;;;;;;13.60;6.97;;;;;;;;;;5003941;28;20037;-58
2023/06/24 01:07:42;;;;;;;16.52;7.65;;;;;;;;;;5011328;28;20042;-58
2023/06/24 01:10:09;;;;;;;15.65;7.45;;;;;;;;;;5020378;28;20029;-58
2023/06/24 01:12:40;;;;;;;14.63;7.53;;;;;;;;;;5017815;28;20724;-58
2023/06/24 01:15:09;;;;;;;12.68;6.88;;;;;;;;;;5013409;28;20045;-58
2023/06/24 01:17:43;;;;;;;18.30;7.93;;;;;;;;;;5008119;28;20038;-57
2023/06/24 01:20:39;;;;;;;13.25;7.50;;;;;;;;;;5009017;28;20030;-58
2023/06/24 01:23:20;;;;;;;16.58;7.90;;;;;;;;;;5015637;28;20052;-58
2023/06/24 01:26:01;;;;;;;15.48;7.13;;;;;;;;;;5015106;28;20077;-58
2023/06/24 01:28:48;;;;;;;13.38;7.00;;;;;;;;;;5013530;28;20041;-59
2023/06/24 01:31:37;;;;;;;12.80;6.90;;;;;;;;;;5010831;28;20076;-58
2023/06/24 01:34:11;;;;;;;;;;;;;;;;;;5009514;28;20034;-58
2023/06/24 01:36:40;;;;;;;18.65;7.88;;;;;;;;;;5003341;28;19921;-58
2023/06/24 01:39:09;;;;;;;16.05;7.65;;;;;;;;;;5005548;28;20038;-58
2023/06/24 01:41:46;;;;;;;21.00;7.68;;;;;;;;;;5004508;28;20041;-58
2023/06/24 01:44:15;;;;;;;17.55;7.93;;;;;;;;;;5007323;28;20049;-58
2023/06/24 01:46:46;;;;;;;18.08;8.98;;;;;;;;;;5009673;28;20064;-58
2023/06/24 01:49:14;;;;;;;17.63;7.82;;;;;;;;;;5009672;28;20072;-58
2023/06/24 01:51:42;;;;;;;19.42;7.95;;;;;;;;;;5020614;28;20418;-58
2023/06/24 01:54:13;;;;;;;17.80;8.38;;;;;;;;;;5014473;28;20044;-58
2023/06/24 01:56:41;;;;;;;19.60;8.45;;;;;;;;;;5010513;28;20109;-58
2023/06/24 01:59:10;;;;;;;16.80;7.85;;;;;;;;;;5007095;28;20038;-58
2023/06/24 02:01:38;;;;;;;14.40;7.90;;;;;;;;;;5010400;28;20049;-58
2023/06/24 02:04:08;;;;;;;16.02;7.97;;;;;;;;;;5000369;28;20487;-58
2023/06/24 02:06:34;;;;;;;;;;;;;;;;;;5012395;28;20026;-58
2023/06/24 02:09:03;;;;;;;18.10;7.90;;;;;;;;;;5014428;28;19965;-58
2023/06/24 02:11:33;;;;;;;19.90;8.68;;;;;;;;;;5017404;28;20052;-58
2023/06/24 02:14:01;;;;;;;20.98;8.43;;;;;;;;;;5004402;28;20054;-58
2023/06/24 02:16:29;;;;;;;17.40;8.63;;;;;;;;;;5007765;28;20030;-58
2023/06/24 02:19:01;;;;;;;18.30;8.60;;;;;;;;;;5017885;28;20046;-58
2023/06/24 02:21:29;;;;;;;18.75;8.52;;;;;;;;;;5015695;28;20041;-58
2023/06/24 02:23:56;;;;;;;18.63;8.32;;;;;;;;;;5008200;28;20050;-58
2023/06/24 02:26:25;;;;;;;18.05;7.68;;;;;;;;;;5010003;28;20041;-58
2023/06/24 02:28:52;;;;;;;18.08;8.57;;;;;;;;;;5010905;28;20050;-58
2023/06/24 02:31:19;;;;;;;19.05;9.00;;;;;;;;;;5012651;28;20029;-57
2023/06/24 02:33:45;;;;;;;19.70;8.18;;;;;;;;;;5009160;28;20162;-57
2023/06/24 02:36:12;;;;;;;22.38;9.57;;;;;;;;;;5013861;28;20407;-59
2023/06/24 02:38:38;;;;;;;18.50;7.80;;;;;;;;;;5017434;28;20050;-58
2023/06/24 02:41:04;;;;;;;16.45;7.35;;;;;;;;;;5008437;28;20431;-57
2023/06/24 02:43:32;;;;;;;16.58;7.55;;;;;;;;;;5010288;28;20049;-58
2023/06/24 02:46:02;;;;;;;21.07;7.97;;;;;;;;;;5008965;28;20121;-59
2023/06/24 02:48:30;;;;;;;18.23;8.38;;;;;;;;;;5012528;28;20305;-59
2023/06/24 02:50:58;;;;;;;17.10;8.07;;;;;;;;;;5014962;28;20051;-59
2023/06/24 02:53:24;;;;;;;19.48;7.63;;;;;;;;;;5019802;28;20514;-58
2023/06/24 02:55:51;;;;;;;18.95;7.97;;;;;;;;;;4991531;28;20041;-58
2023/06/24 02:58:18;;;;;;;17.10;7.57;;;;;;;;;;5008978;28;20041;-59
2023/06/24 03:00:49;;;;;;;16.52;8.13;;;;;;;;;;5009020;28;20439;-58
2023/06/24 03:03:35;;;;;;;14.95;7.55;;;;;;;;;;5012147;28;20033;-57
2023/06/24 03:06:03;;;;;;;;;;;;;;;;;;5017142;28;20521;-57
2023/06/24 03:08:31;;;;;;;18.73;8.32;;;;;;;;;;5018307;28;19919;-58
2023/06/24 03:10:58;;;;;;;18.40;8.30;;;;;;;;;;5008419;28;20050;-58
2023/06/24 03:13:26;;;;;;;20.95;8.32;;;;;;;;;;5013204;28;20041;-58
2023/06/24 03:16:04;;;;;;;19.75;8.80;;;;;;;;;;5003225;28;20034;-59
2023/06/24 03:18:34;;;;;;;18.75;7.78;;;;;;;;;;5011372;28;20044;-58
2023/06/24 03:21:01;;;;;;;21.23;8.40;;;;;;;;;;5009166;28;20037;-59
2023/06/24 03:23:30;;;;;;;20.20;8.52;;;;;;;;;;5011884;28;20642;-58
2023/06/24 03:25:56;;;;;;;17.65;8.32;;;;;;;;;;5013411;28;20037;-59
2023/06/24 03:28:22;;;;;;;17.10;7.75;;;;;;;;;;5011623;28;20037;-58
2023/06/24 03:30:57;;;;;;;21.23;8.32;;;;;;;;;;5003324;28;20061;-59
2023/06/24 03:33:24;;;;;;;17.95;8.85;;;;;;;;;;4993318;28;20057;-58
2023/06/24 03:35:51;;;;;;;17.50;8.55;;;;;;;;;;5006024;28;20053;-58
2023/06/24 03:38:21;;;;;;;18.90;7.88;;;;;;;;;;5018496;28;20053;-58
2023/06/24 03:40:48;;;;;;;17.40;8.32;;;;;;;;;;5015154;28;20423;-58
2023/06/24 03:43:14;;;;;;;18.52;8.05;;;;;;;;;;5031135;28;20133;-58
2023/06/24 03:45:41;;;;;;;17.05;8.02;;;;;;;;;;5010880;28;20034;-58
2023/06/24 03:48:07;;;;;;;22.25;9.10;;;;;;;;;;5016622;28;20045;-58
2023/06/24 03:50:34;;;;;;;20.15;8.27;;;;;;;;;;5026898;28;20037;-58
2023/06/24 03:53:00;;;;;;;19.13;8.27;;;;;;;;;;5015531;28;20050;-57
2023/06/24 03:55:27;;;;;;;20.55;8.63;;;;;;;;;;5018374;28;20426;-59
2023/06/24 03:57:53;;;;;;;18.65;8.02;;;;;;;;;;5013689;28;20037;-58
2023/06/24 04:00:20;;;;;;;18.75;7.88;;;;;;;;;;5008047;28;20420;-58
2023/06/24 04:02:47;;;;;;;19.10;8.40;;;;;;;;;;5008511;28;20049;-59
2023/06/24 04:05:13;;;;;;;16.85;7.32;;;;;;;;;;5013716;28;20037;-59
2023/06/24 04:07:39;;;;;;;17.52;7.72;;;;;;;;;;5012087;28;20042;-59
2023/06/24 04:10:08;;;;;;;15.98;7.75;;;;;;;;;;5005098;28;20491;-59
2023/06/24 04:12:36;;;;;;;16.40;8.02;;;;;;;;;;5011734;28;20041;-58
2023/06/24 04:15:03;;;;;;;18.67;8.20;;;;;;;;;;5009656;28;20053;-58
2023/06/24 04:17:30;;;;;;;18.27;8.15;;;;;;;;;;5010078;28;20053;-57
2023/06/24 04:19:59;;;;;;;16.37;8.10;;;;;;;;;;5019793;28;20030;-59
2023/06/24 04:22:25;;;;;;;22.38;8.88;;;;;;;;;;5011318;28;20402;-57
2023/06/24 04:24:56;;;;;;;18.05;7.93;;;;;;;;;;5023725;28;20041;-59
2023/06/24 04:27:23;;;;;;;17.00;7.65;;;;;;;;;;5017588;28;20037;-59
2023/06/24 04:29:50;;;;;;;18.50;8.10;;;;;;;;;;5007250;28;20038;-58
2023/06/24 04:32:16;;;;;;;18.75;8.85;;;;;;;;;;4990740;28;20033;-58
2023/06/24 04:34:42;;;;;;;20.52;8.85;;;;;;;;;;5015952;28;20050;-57
2023/06/24 04:37:12;;;;;;;22.88;9.88;;;;;;;;;;5010822;28;20034;-58
2023/06/24 04:39:38;;;;;;;21.15;9.73;;;;;;;;;;5015057;28;20046;-58
2023/06/24 04:42:05;;;;;;;19.73;9.70;;;;;;;;;;5015619;28;20419;-58
2023/06/24 04:44:31;;;;;;;27.25;10.48;;;;;;;;;;5018767;28;20053;-57
2023/06/24 04:47:01;;;;;;;;;;;;;;;;;;5011948;28;20030;-58
2023/06/24 04:49:28;;;;;;;25.77;11.75;;;;;;;;;;5007767;28;19913;-57
2023/06/24 04:51:54;;;;;;;26.33;11.45;;;;;;;;;;5020225;28;20038;-58
2023/06/24 04:54:20;;;;;;;24.55;11.20;;;;;;;;;;5012773;28;20049;-58
2023/06/24 04:56:48;;;;;;;27.27;11.63;;;;;;;;;;5011259;28;20049;-59
2023/06/24 04:59:14;;;;;;;27.67;11.68;;;;;;;;;;5013716;28;20038;-59
2023/06/24 05:01:40;;;;;;;25.50;11.52;;;;;;;;;;5017091;28;20512;-58
2023/06/24 05:04:06;;;;;;;23.33;11.13;;;;;;;;;;5013132;28;20676;-58
2023/06/24 05:06:32;;;;;;;25.30;11.10;;;;;;;;;;5012613;28;20042;-58
2023/06/24 05:08:58;;;;;;;25.13;12.15;;;;;;;;;;5015886;28;20047;-57
2023/06/24 05:11:24;;;;;;;26.50;12.70;;;;;;;;;;5017390;28;20479;-57
2023/06/24 05:13:51;;;;;;;24.23;11.13;;;;;;;;;;5012713;28;20038;-57
2023/06/24 05:16:17;;;;;;;25.27;11.65;;;;;;;;;;5011715;28;20041;-58
2023/06/24 05:18:45;;;;;;;24.58;11.35;;;;;;;;;;5006925;28;20046;-57
2023/06/24 05:21:11;;;;;;;26.20;11.27;;;;;;;;;;5009005;28;20029;-59
2023/06/24 05:23:37;;;;;;;23.27;11.32;;;;;;;;;;5013695;28;20061;-58
2023/06/24 05:26:03;;;;;;;26.20;10.75;;;;;;;;;;5016366;28;20408;-58
2023/06/24 05:28:29;;;;;;;22.05;9.93;;;;;;;;;;5008704;28;20036;-57
2023/06/24 05:30:56;;;;;;;22.50;10.73;;;;;;;;;;5010435;28;20049;-58
2023/06/24 05:33:22;;;;;;;19.20;9.93;;;;;;;;;;5015375;28;20073;-58
2023/06/24 05:35:50;;;;;;;20.45;9.57;;;;;;;;;;5016193;28;20056;-58
2023/06/24 05:38:16;;;;;;;18.33;9.10;;;;;;;;;;5012245;28;20046;-58
2023/06/24 05:40:42;;;;;;;20.73;9.25;;;;;;;;;;5008422;28;20077;-58
2023/06/24 05:43:08;;;;;;;18.52;9.43;;;;;;;;;;5011006;28;20057;-57
2023/06/24 05:45:34;;;;;;;19.27;9.60;;;;;;;;;;4993648;28;20045;-58
2023/06/24 05:48:02;;;;;;;14.32;8.18;;;;;;;;;;5016605;28;20036;-58
2023/06/24 05:50:28;;;;;;;19.13;8.68;;;;;;;;;;5008860;28;20049;-58
2023/06/24 05:52:55;;;;;;;14.95;8.52;;;;;;;;;;5023649;28;20045;-58
2023/06/24 05:55:21;;;;;;;16.77;8.48;;;;;;;;;;5019113;28;20045;-58
2023/06/24 05:57:47;;;;;;;14.90;8.32;;;;;;;;;;5017302;28;20069;-58
2023/06/24 06:00:14;;;;;;;14.25;7.80;;;;;;;;;;5008351;28;20057;-56
2023/06/24 06:02:42;;;;;;;13.52;7.35;;;;;;;;;;5010671;28;20411;-58
2023/06/24 06:05:08;;;;;;;11.60;7.43;;;;;;;;;;5011424;28;20050;-58
2023/06/24 06:07:34;;;;;;;11.80;6.95;;;;;;;;;;5005420;28;20033;-57
2023/06/24 06:10:01;;;;;;;11.63;6.63;;;;;;;;;;5015377;28;20676;-56
2023/06/24 06:12:27;;;;;;;11.30;6.22;;;;;;;;;;5008962;28;20030;-57
2023/06/24 06:14:53;;;;;;;9.88;5.60;;;;;;;;;;5013535;28;20045;-57
2023/06/24 06:17:19;;;;;;;9.18;5.85;;;;;;;;;;5010394;28;20492;-57
2023/06/24 06:19:46;;;;;;;8.20;5.22;;;;;;;;;;5004860;28;20396;-58
2023/06/24 06:22:14;;;;;;;8.73;5.40;;;;;;;;;;5009001;28;20052;-57
2023/06/24 06:24:40;;;;;;;8.02;5.65;;;;;;;;;;5018466;28;20050;-57
2023/06/24 06:27:10;;;;;;;8.48;4.90;;;;;;;;;;5013105;28;20042;-58
2023/06/24 06:29:36;;;;;;;6.95;4.70;;;;;;;;;;5008965;28;20038;-58
2023/06/24 06:32:02;;;;;;;6.68;4.53;;;;;;;;;;5007553;28;20534;-58
2023/06/24 06:34:29;;;;;;;10.07;4.63;;;;;;;;;;5010570;28;20048;-57
2023/06/24 06:36:55;;;;;;;7.10;4.60;;;;;;;;;;5011104;28;20411;-59
2023/06/24 06:39:21;;;;;;;7.25;5.05;;;;;;;;;;5012128;28;20034;-59
2023/06/24 06:41:47;;;;;;;7.07;4.28;;;;;;;;;;5010726;28;20049;-59
2023/06/24 06:44:16;;;;;;;6.73;4.23;;;;;;;;;;5007116;28;20037;-59
2023/06/24 06:46:42;;;;;;;8.25;4.60;;;;;;;;;;5012659;28;20120;-59
2023/06/24 06:49:08;;;;;;;8.05;5.05;;;;;;;;;;5005599;28;20041;-59
2023/06/24 06:51:35;;;;;;;6.30;4.68;;;;;;;;;;5007348;28;20041;-60
2023/06/24 06:54:01;;;;;;;6.57;4.20;;;;;;;;;;5011367;28;20041;-59
2023/06/24 06:56:28;;;;;;;8.75;4.70;;;;;;;;;;5015840;28;20185;-59
2023/06/24 06:58:54;;;;;;;5.47;4.05;;;;;;;;;;5012671;28;20647;-60
2023/06/24 07:01:20;;;;;;;6.20;4.38;;;;;;;;;;5019829;28;20542;-59
2023/06/24 07:03:49;;;;;;;6.65;4.38;;;;;;;;;;5013858;28;20515;-60
2023/06/24 07:06:18;;;;;;;6.13;4.40;;;;;;;;;;5015007;28;20052;-59
2023/06/24 07:08:44;;;;;;;7.07;4.72;;;;;;;;;;5006524;28;20050;-59
2023/06/24 07:11:10;;;;;;;7.13;4.43;;;;;;;;;;5014915;28;20037;-59
2023/06/24 07:13:36;;;;;;;5.95;4.10;;;;;;;;;;5018819;28;20033;-59
2023/06/24 07:16:03;;;;;;;6.32;4.10;;;;;;;;;;5021839;28;20046;-59
2023/06/24 07:18:30;;;;;;;6.40;4.47;;;;;;;;;;5021241;28;20038;-59
2023/06/24 07:21:00;;;;;;;6.30;4.20;;;;;;;;;;5012861;28;20064;-58
2023/06/24 07:23:26;;;;;;;6.00;4.47;;;;;;;;;;5010672;28;20037;-59
2023/06/24 07:25:52;;;;;;;5.38;4.22;;;;;;;;;;5015830;28;20054;-60
2023/06/24 07:28:18;;;;;;;6.70;4.15;;;;;;;;;;5016099;28;20030;-59
2023/06/24 07:30:44;;;;;;;6.85;4.47;;;;;;;;;;5017224;28;20042;-59
2023/06/24 07:33:11;;;;;;;6.90;3.95;;;;;;;;;;5004516;28;20044;-59
2023/06/24 07:35:37;;;;;;;5.82;4.00;;;;;;;;;;5015139;28;20518;-58
2023/06/24 07:38:03;;;;;;;5.78;4.20;;;;;;;;;;5014441;28;20038;-58
2023/06/24 07:40:29;;;;;;;7.80;4.35;;;;;;;;;;5013527;28;20053;-60
2023/06/24 07:42:55;;;;;;;10.90;4.38;;;;;;;;;;5014457;28;20038;-59
2023/06/24 07:45:21;;;;;;;8.55;4.90;;;;;;;;;;5013521;28;20430;-60
2023/06/24 07:47:47;;;;;;;6.35;4.13;;;;;;;;;;5017689;28;20037;-59
2023/06/24 07:50:14;;;;;;;7.30;4.72;;;;;;;;;;5013539;28;20041;-59
2023/06/24 07:52:40;;;;;;;6.78;4.22;;;;;;;;;;5019492;28;20033;-60
2023/06/24 07:55:06;;;;;;;6.43;4.70;;;;;;;;;;5019490;28;20041;-59
2023/06/24 07:57:32;;;;;;;7.55;4.53;;;;;;;;;;5010620;28;20049;-60
2023/06/24 07:59:58;;;;;;;6.18;4.30;;;;;;;;;;5009423;28;20037;-58
2023/06/24 08:02:26;;;;;;;7.75;4.60;;;;;;;;;;5012293;28;20060;-57
2023/06/24 08:04:52;;;;;;;8.80;4.63;;;;;;;;;;5008112;28;20057;-58
2023/06/24 08:07:18;;;;;;;7.68;4.90;;;;;;;;;;5010948;28;20041;-58
2023/06/24 08:09:44;;;;;;;7.13;5.00;;;;;;;;;;5008745;28;20042;-58
2023/06/24 08:12:10;;;;;;;5.65;4.47;;;;;;;;;;5010676;28;20046;-58
2023/06/24 08:14:36;;;;;;;6.35;4.68;;;;;;;;;;5011463;28;20044;-58
2023/06/24 08:17:03;;;;;;;6.68;4.65;;;;;;;;;;5010002;28;20038;-58
2023/06/24 08:19:29;;;;;;;8.18;5.00;;;;;;;;;;5011269;28;20026;-59
2023/06/24 08:21:55;;;;;;;7.78;5.05;;;;;;;;;;5008842;28;20033;-59
2023/06/24 08:24:21;;;;;;;7.38;4.90;;;;;;;;;;5014101;28;20751;-58
2023/06/24 08:26:47;;;;;;;7.68;4.57;;;;;;;;;;5015719;28;20045;-58
2023/06/24 08:29:14;;;;;;;8.18;5.38;;;;;;;;;;5012362;28;20023;-59
2023/06/24 08:31:40;;;;;;;9.98;4.80;;;;;;;;;;5010629;28;20048;-59
2023/06/24 08:34:06;;;;;;;8.75;4.93;;;;;;;;;;5011730;28;20057;-58
2023/06/24 08:36:32;;;;;;;8.90;4.93;;;;;;;;;;5011149;28;20045;-59
2023/06/24 08:38:59;;;;;;;8.18;4.80;;;;;;;;;;5009742;28;20042;-58
2023/06/24 08:41:25;;;;;;;9.60;5.55;;;;;;;;;;5015214;28;20037;-58
2023/06/24 08:43:52;;;;;;;7.60;5.32;;;;;;;;;;5013767;28;20038;-57
2023/06/24 08:46:19;;;;;;;8.75;5.22;;;;;;;;;;5008275;28;20053;-58
2023/06/24 08:48:48;;;;;;;7.00;4.72;;;;;;;;;;5006636;28;20042;-58
2023/06/24 08:51:18;;;;;;;13.10;5.93;;;;;;;;;;5015791;28;20193;-58
2023/06/24 08:53:45;;;;;;;7.82;5.15;;;;;;;;;;5015481;28;20056;-58
2023/06/24 08:56:13;;;;;;;8.95;5.03;;;;;;;;;;5005877;28;20489;-58
2023/06/24 08:58:40;;;;;;;7.32;5.43;;;;;;;;;;5004820;28;20545;-57
2023/06/24 09:01:07;;;;;;;9.10;5.38;;;;;;;;;;5019660;28;20048;-58
2023/06/24 09:03:33;;;;;;;6.65;4.90;;;;;;;;;;5011918;28;20095;-59
2023/06/24 09:06:00;;;;;;;8.85;5.32;;;;;;;;;;5009969;28;20048;-58
2023/06/24 09:08:26;;;;;;;7.50;5.75;;;;;;;;;;5012316;28;20049;-59
2023/06/24 09:10:56;;;;;;;6.60;4.88;;;;;;;;;;5009215;28;20052;-58
2023/06/24 09:13:34;;;;;;;7.00;5.13;;;;;;;;;;5016273;28;20491;-58
2023/06/24 09:16:11;;;;;;;8.77;5.30;;;;;;;;;;5020833;28;20065;-58
2023/06/24 09:18:37;;;;;;;7.75;5.32;;;;;;;;;;5009134;28;20049;-58
2023/06/24 09:21:03;;;;;;;7.68;5.47;;;;;;;;;;5004958;28;20076;-58
2023/06/24 09:23:34;;;;;;;7.05;5.07;;;;;;;;;;5006026;28;20033;-58
2023/06/24 09:26:00;;;;;;;7.55;5.32;;;;;;;;;;5013647;28;20503;-58
2023/06/24 09:28:27;;;;;;;7.03;4.78;;;;;;;;;;5012404;28;20079;-58
2023/06/24 09:31:09;;;;;;;7.07;4.90;;;;;;;;;;5013415;28;20109;-58
2023/06/24 09:33:36;;;;;;;8.02;5.50;;;;;;;;;;5005944;28;20030;-58
2023/06/24 09:36:04;;;;;;;7.50;5.20;;;;;;;;;;5004555;28;20049;-59
2023/06/24 09:38:38;;;;;;;10.18;5.45;;;;;;;;;;5009388;28;20438;-59
2023/06/24 09:41:06;;;;;;;7.63;4.88;;;;;;;;;;5010182;28;20050;-58
2023/06/24 09:43:36;;;;;;;7.28;4.93;;;;;;;;;;5010706;28;20041;-58
2023/06/24 09:46:04;;;;;;;7.45;5.18;;;;;;;;;;5006361;28;20042;-60
2023/06/24 09:48:30;;;;;;;6.82;4.85;;;;;;;;;;5007839;28;20526;-58
2023/06/24 09:51:01;;;;;;;7.97;4.95;;;;;;;;;;5013596;28;20052;-59
2023/06/24 09:53:34;;;;;;;7.05;4.75;;;;;;;;;;5013021;28;20042;-59
2023/06/24 09:56:03;;;;;;;8.00;4.63;;;;;;;;;;5005955;28;20510;-58
2023/06/24 09:58:36;;;;;;;7.97;4.43;;;;;;;;;;5011469;28;20042;-58
2023/06/24 10:01:06;;;;;;;6.15;4.85;;;;;;;;;;5009597;28;20049;-59
2023/06/24 10:03:34;;;;;;;6.78;4.90;;;;;;;;;;5008367;28;20037;-59
2023/06/24 10:06:05;;;;;;;6.75;4.55;;;;;;;;;;5009214;28;20046;-60
2023/06/24 10:08:31;;;;;;;6.43;4.85;;;;;;;;;;5016623;28;20026;-57
2023/06/24 10:10:59;;;;;;;9.40;5.13;;;;;;;;;;5007463;28;20053;-58
2023/06/24 10:13:26;;;;;;;8.32;5.30;;;;;;;;;;5006983;28;20034;-58
2023/06/24 10:15:52;;;;;;;7.53;4.95;;;;;;;;;;5008670;28;20064;-58
2023/06/24 10:18:35;;;;;;;7.82;5.00;;;;;;;;;;5009994;28;20038;-58
2023/06/24 10:21:05;;;;;;;7.38;5.45;;;;;;;;;;5009369;28;20049;-59
2023/06/24 10:23:32;;;;;;;7.30;4.95;;;;;;;;;;5008833;28;20050;-58
2023/06/24 10:25:58;;;;;;;8.90;5.47;;;;;;;;;;5010631;28;20045;-58
2023/06/24 10:28:25;;;;;;;6.70;4.57;;;;;;;;;;5014671;28;20057;-60
2023/06/24 10:30:56;;;;;;;7.88;5.15;;;;;;;;;;5009380;28;20805;-58
2023/06/24 10:33:24;;;;;;;7.88;5.00;;;;;;;;;;5007309;28;20439;-59
2023/06/24 10:35:51;;;;;;;8.77;4.90;;;;;;;;;;5006283;28;20434;-59
2023/06/24 10:38:17;;;;;;;7.97;5.18;;;;;;;;;;5006962;28;20041;-59
2023/06/24 10:40:44;;;;;;;9.77;6.00;;;;;;;;;;5005248;28;20519;-59
2023/06/24 10:43:31;;;;;;;9.10;5.30;;;;;;;;;;5010277;28;20049;-59
2023/06/24 10:46:01;;;;;;;8.35;5.07;;;;;;;;;;5008443;28;20410;-58
2023/06/24 10:48:27;;;;;;;8.25;5.70;;;;;;;;;;5007888;28;20037;-59
2023/06/24 10:50:53;;;;;;;8.05;5.20;;;;;;;;;;5001282;28;20045;-59
2023/06/24 10:53:21;;;;;;;9.20;5.43;;;;;;;;;;5003722;28;20034;-60
2023/06/24 10:55:47;;;;;;;8.30;5.35;;;;;;;;;;5007337;28;20072;-59
2023/06/24 10:58:15;;;;;;;17.52;15.93;;;;;;;;;;5010534;28;20385;-60
2023/06/24 11:00:43;;;;;;;98.93;83.22;;;;;;;;;;5006812;28;20045;-59
2023/06/24 11:03:10;;;;;;;93.30;85.38;;;;;;;;;;5011136;28;20058;-59
2023/06/24 11:05:39;;;;;;;1766.65;897.45;;;;;;;;;;5010746;28;20041;-59
2023/06/24 11:08:06;;;;;;;822.38;557.55;;;;;;;;;;5012355;28;20021;-60
2023/06/24 11:10:32;;;;;;;75.68;67.32;;;;;;;;;;5008760;28;20042;-60
2023/06/24 11:13:05;;;;;;;24.08;21.90;;;;;;;;;;5009127;28;20050;-60
2023/06/24 11:15:32;;;;;;;39.92;34.85;;;;;;;;;;5007369;28;20496;-60
2023/06/24 11:18:01;;;;;;;10.40;6.78;;;;;;;;;;5007565;28;20034;-59
2023/06/24 11:20:28;;;;;;;8.93;5.53;;;;;;;;;;5007302;28;20447;-59
2023/06/24 11:22:54;;;;;;;7.70;5.07;;;;;;;;;;5005637;28;20038;-60
2023/06/24 11:25:21;;;;;;;8.43;5.47;;;;;;;;;;5009653;28;20064;-61
2023/06/24 11:27:51;;;;;;;6.80;5.10;;;;;;;;;;5011961;28;20052;-59
2023/06/24 11:30:17;;;;;;;12.80;6.22;;;;;;;;;;5007462;28;20045;-60
2023/06/24 11:32:44;;;;;;;13.75;5.88;;;;;;;;;;5008627;28;20037;-60
2023/06/24 11:35:14;;;;;;;10.57;8.40;;;;;;;;;;5008312;28;20060;-61
2023/06/24 11:37:43;;;;;;;13.10;7.50;;;;;;;;;;5008015;28;20086;-59
2023/06/24 11:40:09;;;;;;;;;;;;;;;;;;5013806;28;20054;-59
2023/06/24 11:42:37;;;;;;;11.05;6.35;;;;;;;;;;5010303;28;19914;-60
2023/06/24 11:45:05;;;;;;;9.25;6.78;;;;;;;;;;5008323;28;20408;-61
2023/06/24 11:47:36;;;;;;;9.40;6.65;;;;;;;;;;5007868;28;20046;-61
2023/06/24 11:50:04;;;;;;;9.77;6.25;;;;;;;;;;5007062;28;20045;-60
2023/06/24 11:52:41;;;;;;;9.45;6.60;;;;;;;;;;5010337;28;20053;-60
2023/06/24 11:55:17;;;;;;;10.15;6.47;;;;;;;;;;5012152;28;20045;-60
2023/06/24 11:57:48;;;;;;;12.43;6.85;;;;;;;;;;5014376;28;20542;-60
2023/06/24 12:00:15;;;;;;;11.50;7.30;;;;;;;;;;5011674;28;20054;-60
2023/06/24 12:02:41;;;;;;;11.40;6.43;;;;;;;;;;5015604;28;20443;-61
2023/06/24 12:05:07;;;;;;;8.73;6.53;;;;;;;;;;5010995;28;20038;-61
2023/06/24 12:07:34;;;;;;;9.10;5.90;;;;;;;;;;5014052;28;20038;-61
2023/06/24 12:10:00;;;;;;;7.88;5.60;;;;;;;;;;5016824;28;20050;-60
2023/06/24 12:12:26;;;;;;;7.93;5.55;;;;;;;;;;5017172;28;20048;-60
2023/06/24 12:14:52;;;;;;;10.10;6.55;;;;;;;;;;5010248;28;20411;-60
2023/06/24 12:17:18;;;;;;;8.60;5.85;;;;;;;;;;5005664;28;20056;-60
2023/06/24 12:19:45;;;;;;;8.80;5.97;;;;;;;;;;5015860;28;20034;-60
2023/06/24 12:22:14;;;;;;;9.27;5.78;;;;;;;;;;5013295;28;20102;-60
2023/06/24 12:24:40;;;;;;;9.25;6.45;;;;;;;;;;5015620;28;20041;-60
2023/06/24 12:27:06;;;;;;;8.40;5.82;;;;;;;;;;5012014;28;20045;-61
2023/06/24 12:29:32;;;;;;;10.02;5.90;;;;;;;;;;5011303;28;20423;-60
2023/06/24 12:31:58;;;;;;;9.60;6.10;;;;;;;;;;5014672;28;20045;-60
2023/06/24 12:34:24;;;;;;;9.10;5.30;;;;;;;;;;5014360;28;20045;-60
2023/06/24 12:36:50;;;;;;;8.55;5.85;;;;;;;;;;5017859;28;20034;-60
2023/06/24 12:39:17;;;;;;;9.75;6.47;;;;;;;;;;5009254;28;20054;-60
2023/06/24 12:41:43;;;;;;;12.25;6.07;;;;;;;;;;5009329;28;20042;-62
2023/06/24 12:44:09;;;;;;;15.50;6.47;;;;;;;;;;5009271;28;20041;-61
2023/06/24 12:46:35;;;;;;;10.98;6.07;;;;;;;;;;5012913;28;20045;-61
2023/06/24 12:49:01;;;;;;;9.65;6.20;;;;;;;;;;5011475;28;20026;-61
2023/06/24 12:51:27;;;;;;;9.05;6.13;;;;;;;;;;5015839;28;20037;-60
2023/06/24 12:53:53;;;;;;;8.45;5.68;;;;;;;;;;5012160;28;20048;-61
2023/06/24 12:56:19;;;;;;;9.75;6.03;;;;;;;;;;5013611;28;20049;-60
2023/06/24 12:58:45;;;;;;;9.27;6.35;;;;;;;;;;5009438;28;20457;-61
2023/06/24 13:01:11;;;;;;;10.13;6.13;;;;;;;;;;5009200;28;20052;-60
2023/06/24 13:03:37;;;;;;;9.07;5.97;;;;;;;;;;5011497;28;20042;-64
2023/06/24 13:06:04;;;;;;;10.52;6.10;;;;;;;;;;5015821;28;20076;-60
2023/06/24 13:08:30;;;;;;;10.10;6.55;;;;;;;;;;5009929;28;20057;-63
2023/06/24 13:10:56;;;;;;;8.25;5.68;;;;;;;;;;5012470;28;20041;-61
2023/06/24 13:13:22;;;;;;;8.45;5.72;;;;;;;;;;5005781;28;20030;-61
2023/06/24 13:15:48;;;;;;;8.07;5.78;;;;;;;;;;5012298;28;20412;-63
2023/06/24 13:18:14;;;;;;;8.02;5.82;;;;;;;;;;5008017;28;20049;-60
2023/06/24 13:20:41;;;;;;;9.68;6.10;;;;;;;;;;5010331;28;20037;-60
2023/06/24 13:23:07;;;;;;;9.30;6.13;;;;;;;;;;5009484;28;20037;-61
2023/06/24 13:25:34;;;;;;;8.68;5.95;;;;;;;;;;5012280;28;20053;-61
2023/06/24 13:28:01;;;;;;;9.70;5.95;;;;;;;;;;5013132;28;20045;-60
2023/06/24 13:30:27;;;;;;;14.18;6.32;;;;;;;;;;5015196;28;20029;-60
2023/06/24 13:32:53;;;;;;;10.32;5.80;;;;;;;;;;5010249;28;20052;-60
2023/06/24 13:35:19;;;;;;;11.52;6.38;;;;;;;;;;5002531;28;20235;-59
2023/06/24 13:37:46;;;;;;;9.85;6.25;;;;;;;;;;5004092;28;20057;-61
2023/06/24 13:40:12;;;;;;;8.95;6.13;;;;;;;;;;5010213;28;20037;-61
2023/06/24 13:42:38;;;;;;;14.57;6.40;;;;;;;;;;5009664;28;20054;-60
2023/06/24 13:45:05;;;;;;;11.18;6.40;;;;;;;;;;5012064;28;20515;-62
2023/06/24 13:47:31;;;;;;;9.68;6.22;;;;;;;;;;5016105;28;20033;-60
2023/06/24 13:49:58;;;;;;;10.57;5.97;;;;;;;;;;5015121;28;20498;-61
2023/06/24 13:52:26;;;;;;;11.60;5.88;;;;;;;;;;5004554;28;20053;-61
2023/06/24 13:54:52;;;;;;;8.13;5.68;;;;;;;;;;5012199;28;20041;-61
2023/06/24 13:57:19;;;;;;;10.13;6.15;;;;;;;;;;5006377;28;20050;-61
2023/06/24 13:59:45;;;;;;;8.77;5.82;;;;;;;;;;5009080;28;20488;-61
2023/06/24 14:02:11;;;;;;;15.50;6.68;;;;;;;;;;5012872;28;20048;-61
2023/06/24 14:04:38;;;;;;;9.32;6.57;;;;;;;;;;5007440;28;20041;-59
2023/06/24 14:07:06;;;;;;;9.27;6.47;;;;;;;;;;5011160;28;20033;-60
2023/06/24 14:09:33;;;;;;;13.75;7.07;;;;;;;;;;5010560;28;21533;-60
2023/06/24 14:11:59;;;;;;;8.45;6.03;;;;;;;;;;5008706;28;20046;-61
2023/06/24 14:14:25;;;;;;;9.43;6.30;;;;;;;;;;5008741;28;20468;-61
2023/06/24 14:16:52;;;;;;;9.35;6.15;;;;;;;;;;5004726;28;20037;-61
2023/06/24 14:19:18;;;;;;;8.48;5.93;;;;;;;;;;5010718;28;20034;-61
2023/06/24 14:21:44;;;;;;;11.20;6.32;;;;;;;;;;5006593;28;20038;-61
2023/06/24 14:24:11;;;;;;;9.65;6.35;;;;;;;;;;5006635;28;20045;-61
2023/06/24 14:26:37;;;;;;;10.93;5.88;;;;;;;;;;5007163;28;20057;-63
2023/06/24 14:29:03;;;;;;;9.02;5.97;;;;;;;;;;5005363;28;20035;-62
2023/06/24 14:31:29;;;;;;;10.18;6.00;;;;;;;;;;5004765;28;20137;-60
2023/06/24 14:33:55;;;;;;;9.85;5.70;;;;;;;;;;5005988;28;20436;-59
2023/06/24 14:36:22;;;;;;;9.07;5.45;;;;;;;;;;5007826;28;20065;-63
2023/06/24 14:38:48;;;;;;;9.75;5.55;;;;;;;;;;5010138;28;20040;-60